createdAt,value
2018-09-29T00:02:08.826Z,12.61
2018-09-29T00:04:37.695Z,12.58
2018-09-29T00:07:06.924Z,12.60
2018-09-29T00:09:36.059Z,12.56
2018-09-29T00:12:05.254Z,12.55
2018-09-29T00:14:34.140Z,12.48
2018-09-29T00:17:03.731Z,12.53
2018-09-29T00:19:32.621Z,12.46
2018-09-29T00:22:02.543Z,12.37
2018-09-29T00:24:31.494Z,12.36
2018-09-29T00:27:00.600Z,12.45
2018-09-29T00:29:30.169Z,12.46
2018-09-29T00:31:59.123Z,12.41
2018-09-29T00:34:28.681Z,12.39
2018-09-29T00:36:57.551Z,12.35
2018-09-29T00:39:26.814Z,12.28
2018-09-29T00:41:57.156Z,12.21
2018-09-29T00:44:25.884Z,12.18
2018-09-29T00:46:55.370Z,12.17
2018-09-29T00:49:24.745Z,12.13
2018-09-29T00:51:53.949Z,12.18
2018-09-29T00:54:23.123Z,12.13
2018-09-29T00:56:52.299Z,12.14
2018-09-29T00:59:20.937Z,12.12
2018-09-29T01:01:49.791Z,12.06
2018-09-29T01:04:19.124Z,12.00
2018-09-29T01:06:48.150Z,11.98
2018-09-29T01:09:17.139Z,11.99
2018-09-29T01:11:46.660Z,11.97
2018-09-29T01:14:16.094Z,11.94
2018-09-29T01:16:45.141Z,11.92
2018-09-29T01:19:14.394Z,11.93
2018-09-29T01:21:43.279Z,11.92
2018-09-29T01:24:12.731Z,11.95
2018-09-29T01:26:42.088Z,11.94
2018-09-29T01:29:11.117Z,11.88
2018-09-29T01:31:39.966Z,11.87
2018-09-29T01:34:08.680Z,11.85
2018-09-29T01:36:37.332Z,11.89
2018-09-29T01:39:07.832Z,11.85
2018-09-29T01:41:36.622Z,11.79
2018-09-29T01:44:05.738Z,11.69
2018-09-29T01:46:35.781Z,11.60
2018-09-29T01:49:04.961Z,11.41
2018-09-29T01:51:34.216Z,11.29
2018-09-29T01:54:03.091Z,11.15
2018-09-29T01:56:31.853Z,11.01
2018-09-29T01:59:00.607Z,10.88
2018-09-29T02:01:30.136Z,10.73
2018-09-29T02:03:59.244Z,10.62
2018-09-29T02:06:28.451Z,10.50
2018-09-29T02:08:57.934Z,10.37
2018-09-29T02:11:27.105Z,10.17
2018-09-29T02:13:55.944Z,10.12
2018-09-29T02:16:25.261Z,10.02
2018-09-29T02:18:54.745Z,9.94
2018-09-29T02:21:23.595Z,9.74
2018-09-29T02:23:54.344Z,9.73
2018-09-29T02:26:23.383Z,9.69
2018-09-29T02:28:52.626Z,9.58
2018-09-29T02:31:21.585Z,9.52
2018-09-29T02:33:50.997Z,9.44
2018-09-29T02:36:19.880Z,9.35
2018-09-29T02:38:49.395Z,9.26
2018-09-29T02:41:18.282Z,9.17
2018-09-29T02:43:47.132Z,9.13
2018-09-29T02:46:16.165Z,9.11
2018-09-29T02:48:45.376Z,8.98
2018-09-29T02:51:14.576Z,8.87
2018-09-29T02:53:43.416Z,8.82
2018-09-29T02:56:12.192Z,8.76
2018-09-29T02:58:41.402Z,8.68
2018-09-29T03:01:10.427Z,8.72
2018-09-29T03:03:39.440Z,8.67
2018-09-29T03:06:09.131Z,8.50
2018-09-29T03:08:39.342Z,8.50
2018-09-29T03:11:08.390Z,8.45
2018-09-29T03:13:37.262Z,8.41
2018-09-29T03:16:06.776Z,8.38
2018-09-29T03:18:35.722Z,8.32
2018-09-29T03:21:04.349Z,8.28
2018-09-29T03:23:33.672Z,8.20
2018-09-29T03:26:03.740Z,8.20
2018-09-29T03:28:32.878Z,8.11
2018-09-29T03:31:02.417Z,8.08
2018-09-29T03:33:31.411Z,7.96
2018-09-29T03:36:00.298Z,7.96
2018-09-29T03:38:28.981Z,7.99
2018-09-29T03:40:57.705Z,7.94
2018-09-29T03:43:26.352Z,7.97
2018-09-29T03:45:55.533Z,7.91
2018-09-29T03:48:24.808Z,7.81
2018-09-29T03:50:53.980Z,7.84
2018-09-29T03:53:24.210Z,7.80
2018-09-29T03:55:53.602Z,7.73
2018-09-29T03:58:22.456Z,7.70
2018-09-29T04:00:52.086Z,7.63
2018-09-29T04:03:21.024Z,7.55
2018-09-29T04:05:50.047Z,7.58
2018-09-29T04:08:19.522Z,7.58
2018-09-29T04:10:48.565Z,7.56
2018-09-29T04:13:17.211Z,7.53
2018-09-29T04:15:46.211Z,7.49
2018-09-29T04:18:15.116Z,7.42
2018-09-29T04:20:43.946Z,7.45
2018-09-29T04:23:12.616Z,7.46
2018-09-29T04:25:42.070Z,7.38
2018-09-29T04:28:11.307Z,7.35
2018-09-29T04:30:40.590Z,7.31
2018-09-29T04:33:09.390Z,7.28
2018-09-29T04:35:40.013Z,7.25
2018-09-29T04:38:08.778Z,7.24
2018-09-29T04:40:38.377Z,7.15
2018-09-29T04:43:07.607Z,7.15
2018-09-29T04:45:36.764Z,7.08
2018-09-29T04:48:06.080Z,7.08
2018-09-29T04:50:35.616Z,7.06
2018-09-29T04:53:04.486Z,7.06
2018-09-29T04:55:33.642Z,6.95
2018-09-29T04:58:03.322Z,6.93
2018-09-29T05:00:32.177Z,6.89
2018-09-29T05:03:00.791Z,6.91
2018-09-29T05:05:29.656Z,6.86
2018-09-29T05:07:58.786Z,6.95
2018-09-29T05:10:28.163Z,6.94
2018-09-29T05:12:57.210Z,6.97
2018-09-29T05:15:25.951Z,6.96
2018-09-29T05:17:54.800Z,6.95
2018-09-29T05:20:23.896Z,6.98
2018-09-29T05:22:52.437Z,7.02
2018-09-29T05:25:21.258Z,7.04
2018-09-29T05:27:49.963Z,7.09
2018-09-29T05:30:18.951Z,7.20
2018-09-29T05:32:47.782Z,7.25
2018-09-29T05:35:16.441Z,7.34
2018-09-29T05:37:45.546Z,7.36
2018-09-29T05:40:15.491Z,7.36
2018-09-29T05:42:45.007Z,7.42
2018-09-29T05:45:14.261Z,7.50
2018-09-29T05:47:43.227Z,7.55
2018-09-29T05:50:11.857Z,7.59
2018-09-29T05:52:40.978Z,7.69
2018-09-29T05:55:11.037Z,7.76
2018-09-29T05:57:40.118Z,7.81
2018-09-29T06:00:08.835Z,7.87
2018-09-29T06:02:38.808Z,7.95
2018-09-29T06:05:07.473Z,8.03
2018-09-29T06:07:36.485Z,8.09
2018-09-29T06:10:06.545Z,8.12
2018-09-29T06:12:35.362Z,8.16
2018-09-29T06:15:05.188Z,8.26
2018-09-29T06:17:34.163Z,8.30
2018-09-29T06:20:03.453Z,8.33
2018-09-29T06:22:32.696Z,8.40
2018-09-29T06:25:02.058Z,8.48
2018-09-29T06:27:31.074Z,8.58
2018-09-29T06:30:00.152Z,8.69
2018-09-29T06:32:29.137Z,8.82
2018-09-29T06:34:58.819Z,9.02
2018-09-29T06:37:27.453Z,9.27
2018-09-29T06:39:56.367Z,9.35
2018-09-29T06:42:25.087Z,9.44
2018-09-29T06:44:54.707Z,9.50
2018-09-29T06:47:23.984Z,9.51
2018-09-29T06:49:52.983Z,9.50
2018-09-29T06:52:21.959Z,9.48
2018-09-29T06:54:51.624Z,9.52
2018-09-29T06:57:20.937Z,9.56
2018-09-29T06:59:50.457Z,9.69
2018-09-29T07:02:19.198Z,9.79
2018-09-29T07:04:48.080Z,9.92
2018-09-29T07:07:17.820Z,10.16
2018-09-29T07:09:46.902Z,10.42
2018-09-29T07:12:16.083Z,10.68
2018-09-29T07:14:45.523Z,10.76
2018-09-29T07:17:14.541Z,11.11
2018-09-29T07:19:43.731Z,11.30
2018-09-29T07:22:13.026Z,11.43
2018-09-29T07:24:41.860Z,11.71
2018-09-29T07:27:10.577Z,12.16
2018-09-29T07:29:39.701Z,12.77
2018-09-29T07:32:08.482Z,12.83
2018-09-29T07:34:38.354Z,12.77
2018-09-29T07:37:07.387Z,12.61
2018-09-29T07:39:36.573Z,12.38
2018-09-29T07:42:05.832Z,12.43
2018-09-29T07:44:35.298Z,12.62
2018-09-29T07:47:04.240Z,12.94
2018-09-29T07:49:33.033Z,12.95
2018-09-29T07:52:02.544Z,12.80
2018-09-29T07:54:31.448Z,12.71
2018-09-29T07:57:00.197Z,12.54
2018-09-29T07:59:29.332Z,12.58
2018-09-29T08:02:01.645Z,12.99
2018-09-29T08:04:30.773Z,13.79
2018-09-29T08:06:59.911Z,14.95
2018-09-29T08:09:29.133Z,16.21
2018-09-29T08:11:57.968Z,17.08
2018-09-29T08:14:27.579Z,17.82
2018-09-29T08:16:56.834Z,18.55
2018-09-29T08:19:27.148Z,19.29
2018-09-29T08:21:56.452Z,20.26
2018-09-29T08:24:25.157Z,21.01
2018-09-29T08:26:54.709Z,20.89
2018-09-29T08:29:24.958Z,20.98
2018-09-29T08:31:53.788Z,20.74
2018-09-29T08:34:22.611Z,20.78
2018-09-29T08:36:51.732Z,21.03
2018-09-29T08:39:21.148Z,21.68
2018-09-29T08:41:50.227Z,22.30
2018-09-29T08:44:19.623Z,22.69
2018-09-29T08:46:48.910Z,22.26
2018-09-29T08:49:17.812Z,23.22
2018-09-29T08:51:46.842Z,23.65
2018-09-29T08:54:16.497Z,23.51
2018-09-29T08:56:45.587Z,24.23
2018-09-29T08:59:14.829Z,24.65
2018-09-29T09:01:44.103Z,24.67
2018-09-29T09:04:13.143Z,24.59
2018-09-29T09:06:42.067Z,24.88
2018-09-29T09:09:12.164Z,25.76
2018-09-29T09:11:41.855Z,25.76
2018-09-29T09:14:11.005Z,26.31
2018-09-29T09:16:39.814Z,26.10
2018-09-29T09:19:09.683Z,25.83
2018-09-29T09:21:39.674Z,25.62
2018-09-29T09:24:09.156Z,25.75
2018-09-29T09:26:38.393Z,26.40
2018-09-29T09:29:07.532Z,25.97
2018-09-29T09:31:36.699Z,26.04
2018-09-29T09:34:05.747Z,26.02
2018-09-29T09:36:34.932Z,25.63
2018-09-29T09:39:05.025Z,25.38
2018-09-29T09:41:35.266Z,25.03
2018-09-29T09:44:05.044Z,25.39
2018-09-29T09:46:34.983Z,26.23
2018-09-29T09:49:04.817Z,26.60
2018-09-29T09:51:34.279Z,26.54
2018-09-29T09:54:03.677Z,26.18
2018-09-29T09:56:33.017Z,27.24
2018-09-29T09:59:01.935Z,28.12
2018-09-29T10:01:39.099Z,27.45
2018-09-29T10:04:08.345Z,27.13
2018-09-29T10:06:37.308Z,27.88
2018-09-29T10:09:09.763Z,28.09
2018-09-29T10:11:38.725Z,28.73
2018-09-29T10:14:08.218Z,29.51
2018-09-29T10:16:37.614Z,29.20
2018-09-29T10:19:07.935Z,28.63
2018-09-29T10:21:36.667Z,28.47
2018-09-29T10:24:05.763Z,28.99
2018-09-29T10:26:35.365Z,28.97
2018-09-29T10:29:04.308Z,29.48
2018-09-29T10:31:33.010Z,29.15
2018-09-29T10:34:02.716Z,28.40
2018-09-29T10:36:31.875Z,28.44
2018-09-29T10:39:01.159Z,28.27
2018-09-29T10:41:30.914Z,28.58
2018-09-29T10:44:00.238Z,29.13
2018-09-29T10:46:30.069Z,29.12
2018-09-29T10:48:58.958Z,29.24
2018-09-29T10:51:28.627Z,29.32
2018-09-29T10:53:57.383Z,29.58
2018-09-29T10:56:26.239Z,29.87
2018-09-29T10:58:55.762Z,29.26
2018-09-29T11:01:25.045Z,30.35
2018-09-29T11:03:53.868Z,30.44
2018-09-29T11:06:23.467Z,29.70
2018-09-29T11:08:52.885Z,29.02
2018-09-29T11:11:21.987Z,29.62
2018-09-29T11:13:51.325Z,29.99
2018-09-29T11:16:21.595Z,30.91
2018-09-29T11:18:51.354Z,30.20
2018-09-29T11:21:20.849Z,30.50
2018-09-29T11:23:49.989Z,30.13
2018-09-29T11:26:20.158Z,29.94
2018-09-29T11:28:49.691Z,31.04
2018-09-29T11:31:18.635Z,31.31
2018-09-29T11:33:47.398Z,31.06
2018-09-29T11:36:16.255Z,31.55
2018-09-29T11:38:44.978Z,30.70
2018-09-29T11:41:14.600Z,31.35
2018-09-29T11:43:43.683Z,31.58
2018-09-29T11:46:13.129Z,31.43
2018-09-29T11:48:42.345Z,31.21
2018-09-29T11:51:11.157Z,31.66
2018-09-29T11:53:40.766Z,31.39
2018-09-29T11:56:09.582Z,31.63
2018-09-29T11:58:38.468Z,31.84
2018-09-29T12:01:07.534Z,31.96
2018-09-29T12:03:36.444Z,31.34
2018-09-29T12:06:05.995Z,32.19
2018-09-29T12:08:35.268Z,31.45
2018-09-29T12:11:04.219Z,31.99
2018-09-29T12:13:32.904Z,31.25
2018-09-29T12:16:01.744Z,31.37
2018-09-29T12:18:31.158Z,30.82
2018-09-29T12:21:00.145Z,31.29
2018-09-29T12:23:29.508Z,31.01
2018-09-29T12:25:59.634Z,30.57
2018-09-29T12:28:28.958Z,31.24
2018-09-29T12:30:59.143Z,30.90
2018-09-29T12:33:28.242Z,31.48
2018-09-29T12:35:57.439Z,31.42
2018-09-29T12:38:26.765Z,31.88
2018-09-29T12:40:56.005Z,31.71
2018-09-29T12:43:25.062Z,30.41
2018-09-29T12:45:54.316Z,30.27
2018-09-29T12:48:23.984Z,31.04
2018-09-29T12:50:52.751Z,31.14
2018-09-29T12:53:21.640Z,31.34
2018-09-29T12:55:51.166Z,31.62
2018-09-29T12:58:20.229Z,32.01
2018-09-29T13:00:49.859Z,32.25
2018-09-29T13:03:19.025Z,31.38
2018-09-29T13:05:48.033Z,31.05
2018-09-29T13:08:17.450Z,31.22
2018-09-29T13:10:46.124Z,31.19
2018-09-29T13:13:14.792Z,32.35
2018-09-29T13:15:44.055Z,31.95
2018-09-29T13:18:13.260Z,31.66
2018-09-29T13:20:42.951Z,31.31
2018-09-29T13:23:13.634Z,30.20
2018-09-29T13:25:42.853Z,30.80
2018-09-29T13:28:12.171Z,30.88
2018-09-29T13:30:41.161Z,30.69
2018-09-29T13:33:10.420Z,30.78
2018-09-29T13:35:39.841Z,30.70
2018-09-29T13:38:08.966Z,30.54
2018-09-29T13:40:38.385Z,29.86
2018-09-29T13:43:07.325Z,28.94
2018-09-29T13:45:37.730Z,28.90
2018-09-29T13:48:07.935Z,28.48
2018-09-29T13:50:36.619Z,29.35
2018-09-29T13:53:05.685Z,30.52
2018-09-29T13:55:35.049Z,29.90
2018-09-29T13:58:03.903Z,29.05
2018-09-29T14:00:34.350Z,28.95
2018-09-29T14:03:03.052Z,28.34
2018-09-29T14:05:31.869Z,27.75
2018-09-29T14:08:09.787Z,28.22
2018-09-29T14:10:39.587Z,28.81
2018-09-29T14:13:09.990Z,28.43
2018-09-29T14:15:41.015Z,27.85
2018-09-29T14:18:10.420Z,27.81
2018-09-29T14:20:40.823Z,26.93
2018-09-29T14:23:09.881Z,26.66
2018-09-29T14:25:39.044Z,25.84
2018-09-29T14:28:09.266Z,24.69
2018-09-29T14:30:38.675Z,23.19
2018-09-29T14:33:08.316Z,22.76
2018-09-29T14:35:37.959Z,21.96
2018-09-29T14:38:07.641Z,21.56
2018-09-29T14:40:37.322Z,21.05
2018-09-29T14:43:07.124Z,20.59
2018-09-29T14:45:36.441Z,20.38
2018-09-29T14:48:06.850Z,20.35
2018-09-29T14:50:36.867Z,20.02
2018-09-29T14:53:07.376Z,20.14
2018-09-29T14:55:38.805Z,19.97
2018-09-29T14:58:08.410Z,19.68
2018-09-29T15:00:38.860Z,19.58
2018-09-29T15:03:07.955Z,19.44
2018-09-29T15:05:36.939Z,19.39
2018-09-29T15:08:06.656Z,19.28
2018-09-29T15:10:35.702Z,19.25
2018-09-29T15:13:04.706Z,19.23
2018-09-29T15:15:34.125Z,18.90
2018-09-29T15:18:03.241Z,18.73
2018-09-29T15:20:32.358Z,18.86
2018-09-29T15:23:01.285Z,18.69
2018-09-29T15:25:29.930Z,18.70
2018-09-29T15:27:58.794Z,18.65
2018-09-29T15:30:28.475Z,18.59
2018-09-29T15:32:57.432Z,18.47
2018-09-29T15:35:26.960Z,18.42
2018-09-29T15:37:56.026Z,18.45
2018-09-29T15:40:25.732Z,18.22
2018-09-29T15:42:55.549Z,18.05
2018-09-29T15:45:24.424Z,18.02
2018-09-29T15:47:53.649Z,17.96
2018-09-29T15:50:23.144Z,17.79
2018-09-29T15:52:52.119Z,17.80
2018-09-29T15:55:21.535Z,17.73
2018-09-29T15:57:50.871Z,17.75
2018-09-29T16:00:19.961Z,17.66
2018-09-29T16:02:50.211Z,17.63
2018-09-29T16:05:19.306Z,17.51
2018-09-29T16:07:48.806Z,17.47
2018-09-29T16:10:17.954Z,17.46
2018-09-29T16:12:46.867Z,17.35
2018-09-29T16:15:16.714Z,17.21
2018-09-29T16:17:46.056Z,17.10
2018-09-29T16:20:15.737Z,17.05
2018-09-29T16:22:44.970Z,17.02
2018-09-29T16:25:14.217Z,16.88
2018-09-29T16:27:43.461Z,16.75
2018-09-29T16:30:12.791Z,16.64
2018-09-29T16:32:41.812Z,16.55
2018-09-29T16:35:11.028Z,16.43
2018-09-29T16:37:40.396Z,16.30
2018-09-29T16:40:10.199Z,16.19
2018-09-29T16:42:39.754Z,16.17
2018-09-29T16:45:08.577Z,16.06
2018-09-29T16:47:38.726Z,15.98
2018-09-29T16:50:07.534Z,15.84
2018-09-29T16:52:37.702Z,15.74
2018-09-29T16:55:06.711Z,15.57
2018-09-29T16:57:35.787Z,15.51
2018-09-29T17:00:05.259Z,15.35
2018-09-29T17:02:35.057Z,15.25
2018-09-29T17:05:03.846Z,15.09
2018-09-29T17:07:32.687Z,14.94
2018-09-29T17:10:02.634Z,14.82
2018-09-29T17:12:33.045Z,14.67
2018-09-29T17:15:01.813Z,14.50
2018-09-29T17:17:30.811Z,14.43
2018-09-29T17:20:01.618Z,14.28
2018-09-29T17:22:30.328Z,14.18
2018-09-29T17:24:59.383Z,13.95
2018-09-29T17:27:28.388Z,13.86
2018-09-29T17:29:57.078Z,13.73
2018-09-29T17:32:25.973Z,13.52
2018-09-29T17:34:54.867Z,13.41
2018-09-29T17:37:23.766Z,13.14
2018-09-29T17:39:53.771Z,12.91
2018-09-29T17:42:22.927Z,12.72
2018-09-29T17:44:52.225Z,12.66
2018-09-29T17:47:20.946Z,12.55
2018-09-29T17:49:50.648Z,12.49
2018-09-29T17:52:20.907Z,12.44
2018-09-29T17:54:50.003Z,12.32
2018-09-29T17:57:19.227Z,12.28
2018-09-29T17:59:48.468Z,12.14
2018-09-29T18:02:17.742Z,11.99
2018-09-29T18:04:47.037Z,11.86
2018-09-29T18:07:15.786Z,11.81
2018-09-29T18:09:45.545Z,11.73
2018-09-29T18:12:14.282Z,11.63
2018-09-29T18:14:43.046Z,11.48
2018-09-29T18:17:13.091Z,11.40
2018-09-29T18:19:42.340Z,11.31
2018-09-29T18:22:11.371Z,11.16
2018-09-29T18:24:40.656Z,11.00
2018-09-29T18:27:09.946Z,11.03
2018-09-29T18:29:39.184Z,10.95
2018-09-29T18:32:08.297Z,10.95
2018-09-29T18:34:37.618Z,10.78
2018-09-29T18:37:06.802Z,10.67
2018-09-29T18:39:36.458Z,10.49
2018-09-29T18:42:05.348Z,10.50
2018-09-29T18:44:34.407Z,10.30
2018-09-29T18:47:03.891Z,10.19
2018-09-29T18:49:32.947Z,10.08
2018-09-29T18:52:02.257Z,10.04
2018-09-29T18:54:31.433Z,9.91
2018-09-29T18:57:00.711Z,9.86
2018-09-29T18:59:29.868Z,9.82
2018-09-29T19:01:59.132Z,9.83
2018-09-29T19:04:28.346Z,9.69
2018-09-29T19:06:57.513Z,9.62
2018-09-29T19:09:27.027Z,9.64
2018-09-29T19:11:56.080Z,9.52
2018-09-29T19:14:25.272Z,9.37
2018-09-29T19:16:54.457Z,9.30
2018-09-29T19:19:23.667Z,9.21
2018-09-29T19:21:52.709Z,9.11
2018-09-29T19:24:22.283Z,9.01
2018-09-29T19:26:51.382Z,8.93
2018-09-29T19:29:20.512Z,8.91
2018-09-29T19:31:49.838Z,8.82
2018-09-29T19:34:19.947Z,8.73
2018-09-29T19:36:49.127Z,8.66
2018-09-29T19:39:18.376Z,8.58
2018-09-29T19:41:47.691Z,8.42
2018-09-29T19:44:17.702Z,8.36
2018-09-29T19:46:47.779Z,8.29
2018-09-29T19:49:18.084Z,8.29
2018-09-29T19:51:47.303Z,8.19
2018-09-29T19:54:16.665Z,8.18
2018-09-29T19:56:45.872Z,8.16
2018-09-29T19:59:15.215Z,8.06
2018-09-29T20:01:44.363Z,7.98
2018-09-29T20:04:13.584Z,7.80
2018-09-29T20:06:42.689Z,7.72
2018-09-29T20:09:12.908Z,7.66
2018-09-29T20:11:42.275Z,7.65
2018-09-29T20:14:11.433Z,7.59
2018-09-29T20:16:40.874Z,7.50
2018-09-29T20:19:09.978Z,7.42
2018-09-29T20:21:39.230Z,7.31
2018-09-29T20:24:08.212Z,7.39
2018-09-29T20:26:37.502Z,7.28
2018-09-29T20:29:07.547Z,7.32
2018-09-29T20:31:37.084Z,7.29
2018-09-29T20:34:06.162Z,7.22
2018-09-29T20:36:35.589Z,7.15
2018-09-29T20:39:06.787Z,7.05
2018-09-29T20:41:35.929Z,7.04
2018-09-29T20:44:05.648Z,6.86
2018-09-29T20:46:35.692Z,6.85
2018-09-29T20:49:04.724Z,6.79
2018-09-29T20:51:33.643Z,6.72
2018-09-29T20:54:04.033Z,6.71
2018-09-29T20:56:33.047Z,6.61
2018-09-29T20:59:02.384Z,6.52
2018-09-29T21:01:31.363Z,6.48
2018-09-29T21:04:00.638Z,6.43
2018-09-29T21:06:29.442Z,6.42
2018-09-29T21:08:58.415Z,6.39
2018-09-29T21:11:27.407Z,6.38
2018-09-29T21:13:56.392Z,6.30
2018-09-29T21:16:25.364Z,6.29
2018-09-29T21:18:55.030Z,6.22
2018-09-29T21:21:24.086Z,6.12
2018-09-29T21:23:53.613Z,6.13
2018-09-29T21:26:23.984Z,6.08
2018-09-29T21:28:52.919Z,6.04
2018-09-29T21:31:22.049Z,6.04
2018-09-29T21:33:51.677Z,5.99
2018-09-29T21:36:20.530Z,6.03
2018-09-29T21:38:49.747Z,6.02
2018-09-29T21:41:19.019Z,5.96
2018-09-29T21:43:47.832Z,5.93
2018-09-29T21:46:16.448Z,5.78
2018-09-29T21:48:45.702Z,5.78
2018-09-29T21:51:17.028Z,5.73
2018-09-29T21:53:46.097Z,5.59
2018-09-29T21:56:15.371Z,5.56
2018-09-29T21:58:44.392Z,5.54
2018-09-29T22:01:18.660Z,5.52
2018-09-29T22:03:47.743Z,5.57
2018-09-29T22:06:17.221Z,5.49
2018-09-29T22:08:46.183Z,5.39
2018-09-29T22:11:15.520Z,5.42
2018-09-29T22:13:44.778Z,5.42
2018-09-29T22:16:14.028Z,5.44
2018-09-29T22:18:43.174Z,5.49
2018-09-29T22:21:12.571Z,5.43
2018-09-29T22:23:41.898Z,5.37
2018-09-29T22:26:11.004Z,5.27
2018-09-29T22:28:40.423Z,5.31
2018-09-29T22:31:09.276Z,5.27
2018-09-29T22:33:38.281Z,5.15
2018-09-29T22:36:07.633Z,5.14
2018-09-29T22:38:36.327Z,5.10
2018-09-29T22:41:05.110Z,4.99
2018-09-29T22:43:34.404Z,5.00
2018-09-29T22:46:03.763Z,4.99
2018-09-29T22:48:32.750Z,5.01
2018-09-29T22:51:02.205Z,4.93
2018-09-29T22:53:31.192Z,4.83
2018-09-29T22:56:00.332Z,4.82
2018-09-29T22:58:29.782Z,4.82
2018-09-29T23:00:58.961Z,4.74
2018-09-29T23:03:28.549Z,4.77
2018-09-29T23:05:57.353Z,4.74
2018-09-29T23:08:26.565Z,4.59
2018-09-29T23:10:55.494Z,4.66
2018-09-29T23:13:24.233Z,4.59
2018-09-29T23:15:53.485Z,4.50
2018-09-29T23:18:22.368Z,4.46
2018-09-29T23:20:50.973Z,4.45
2018-09-29T23:23:20.078Z,4.49
2018-09-29T23:25:50.323Z,4.43
2018-09-29T23:28:19.068Z,4.43
2018-09-29T23:30:48.659Z,4.34
2018-09-29T23:33:17.497Z,4.34
2018-09-29T23:35:47.116Z,4.41
2018-09-29T23:38:15.970Z,4.37
2018-09-29T23:40:45.574Z,4.31
2018-09-29T23:43:15.724Z,4.26
2018-09-29T23:45:44.988Z,4.20
2018-09-29T23:48:14.220Z,4.14
2018-09-29T23:50:43.571Z,4.06
2018-09-29T23:53:12.245Z,4.00
2018-09-29T23:55:41.795Z,3.95
2018-09-29T23:58:11.254Z,3.95
